• Join FlightAware (Why Join?)
  • Login
  • US Flag 
07:48PM EDT


 

Airport Tracker/Info


-or-


 

Live Flight TrackerFlight Track Log ✈ M-CICO ✈ 29-Jun-2014 ✈ TUPJ / EIS - LPAZ / SMA

Flight Track Log - Related Links

Times and Time Zones

All times are in EDT time to prevent confusion due to time zone crossing. See the M-CICO flight status page for this flight to view local times or setup timezone preferences in your user account.

Time Position Orientation Groundspeed Altitude Reporting Facility
EDT Latitude Longitude Course Direction KTS MPH feet Rate Location/Type
05:00PM 18.4833 -64.5167 328° Northwest 190 219 2,000  Level San Juan Center
05:01PM 18.5333 -64.5500 328° Northwest 230 265 4,000 1,740 Climbing San Juan Center
05:02PM 18.6000 -64.6000 325° Northwest 300 345 5,600 1,860 Climbing San Juan Center
05:03PM 18.6500 -64.5500 43° Northeast 260 299 7,800 2,100 Climbing San Juan Center
05:04PM 18.6667 -64.4667 78° East 290 334 9,800 840 Climbing San Juan Center
05:06PM 18.7000 -64.2833 79° East 310 357 10,400 780 Climbing San Juan Center
05:07PM 18.7333 -64.2000 67° East 310 357 12,300 1,980 Climbing San Juan Center
05:08PM 18.7500 -64.1167 78° East 320 368 14,400 2,280 Climbing San Juan Center
05:09PM 18.7667 -64.0167 80° East 330 380 17,000 2,400 Climbing San Juan Center
05:10PM 18.8000 -63.9167 71° East 320 368 19,200 1,980 Climbing San Juan Center
05:11PM 18.8167 -63.8333 78° East 330 380 21,000 1,500 Climbing San Juan Center
05:12PM 18.8500 -63.7500 67° East 320 368 22,300 1,320 Climbing San Juan Center
05:13PM 18.8667 -63.6500 80° East 360 414 23,700 1,320 Climbing San Juan Center
05:14PM 18.9000 -63.5500 71° East 370 426 25,000 1,200 Climbing San Juan Center
05:15PM 18.9167 -63.4167 82° East 410 472 26,100 960 Climbing San Juan Center
05:16PM 18.9500 -63.3167 71° East 400 460 27,000 900 Climbing San Juan Center
05:17PM 18.9833 -63.2000 73° East 430 495 28,000 1,020 Climbing San Juan Center
05:18PM 19.0167 -63.0500 77° East 420 483 29,100 900 Climbing San Juan Center
05:20PM 19.0833 -62.8167 73° East 430 495 30,800 900 Climbing San Juan Center
05:21PM 19.1167 -62.7000 73° East 440 506 31,900 1,200 Climbing San Juan Center
05:23PM 19.1500 -62.4833 81° East 390 449 33,800 1,080 Climbing San Juan Center
05:25PM 19.2000 -62.2833 75° East 450 518 35,500 960 Climbing San Juan Center
05:26PM 19.2333 -62.1667 73° East 440 506 36,500 960 Climbing San Juan Center
05:27PM 19.2667 -62.0333 75° East 450 518 37,500 900 Climbing San Juan Center
05:28PM 19.3000 -61.9000 75° East 450 518 38,300 720 Climbing San Juan Center
05:29PM 19.3333 -61.7833 73° East 450 518 39,000 420 Climbing San Juan Center
05:34PM 19.3333 -61.7667 45° Northeast 468 539 41,000 60 Climbing New York Oceanic (ODAPS)
06:01PM 21.0000 -60.0000 55° Northeast 462 532 41,000  Level New York Oceanic (ODAPS)
06:02PM 22.2053 -58.1431 55° Northeast 468 539 41,000  Level FlightAware Transoceanic
06:03PM 22.2799 -58.0260 55° Northeast 468 539 41,000  Level FlightAware Transoceanic
06:04PM 22.3545 -57.9088 56° Northeast 468 539 41,000  Level FlightAware Transoceanic
06:05PM 22.4289 -57.7914 56° Northeast 468 539 41,000  Level FlightAware Transoceanic
06:06PM 22.5033 -57.6739 56° Northeast 468 539 41,000  Level FlightAware Transoceanic
06:07PM 22.5776 -57.5563 56° Northeast 468 539 41,000  Level FlightAware Transoceanic
06:08PM 22.6134 -57.4996 56° Northeast 462 532 41,000  Level FlightAware Transoceanic
06:09PM 22.6858 -57.3846 56° Northeast 462 532 41,000  Level FlightAware Transoceanic
06:10PM 22.7582 -57.2694 56° Northeast 462 532 41,000  Level FlightAware Transoceanic
06:11PM 22.8304 -57.1542 56° Northeast 462 532 41,000  Level FlightAware Transoceanic
06:12PM 22.9026 -57.0388 56° Northeast 462 532 41,000  Level FlightAware Transoceanic
06:13PM 22.9747 -56.9233 56° Northeast 462 532 41,000  Level FlightAware Transoceanic
06:14PM 23.0467 -56.8077 56° Northeast 462 532 41,000  Level FlightAware Transoceanic
06:15PM 23.1187 -56.6919 56° Northeast 462 532 41,000  Level FlightAware Transoceanic
06:16PM 23.1905 -56.5760 56° Northeast 462 532 41,000  Level FlightAware Transoceanic
06:17PM 23.2623 -56.4600 56° Northeast 462 532 41,000  Level FlightAware Transoceanic
06:18PM 23.3339 -56.3439 56° Northeast 462 532 41,000  Level FlightAware Transoceanic
06:19PM 23.4055 -56.2277 56° Northeast 462 532 41,000  Level FlightAware Transoceanic
06:20PM 23.4770 -56.1113 56° Northeast 462 532 41,000  Level FlightAware Transoceanic
06:21PM 23.5484 -55.9948 56° Northeast 462 532 41,000  Level FlightAware Transoceanic
06:22PM 23.6197 -55.8782 56° Northeast 462 532 41,000  Level FlightAware Transoceanic
06:23PM 23.6910 -55.7614 56° Northeast 462 532 41,000  Level FlightAware Transoceanic
06:24PM 23.7621 -55.6445 56° Northeast 462 532 41,000  Level FlightAware Transoceanic
06:25PM 23.8332 -55.5275 56° Northeast 462 532 41,000  Level FlightAware Transoceanic
06:26PM 23.9042 -55.4104 56° Northeast 462 532 41,000  Level FlightAware Transoceanic
06:27PM 23.9751 -55.2931 57° Northeast 462 532 41,000  Level FlightAware Transoceanic
06:28PM 24.0459 -55.1757 57° Northeast 462 532 41,000  Level FlightAware Transoceanic
06:29PM 24.1166 -55.0582 57° Northeast 462 532 41,000  Level FlightAware Transoceanic
06:30PM 24.1872 -54.9405 57° Northeast 462 532 41,000  Level FlightAware Transoceanic
06:31PM 24.2577 -54.8228 57° Northeast 462 532 41,000  Level FlightAware Transoceanic
06:32PM 24.3281 -54.7048 57° Northeast 462 532 41,000  Level FlightAware Transoceanic
06:33PM 24.3985 -54.5868 57° Northeast 462 532 41,000  Level FlightAware Transoceanic
06:34PM 24.4688 -54.4686 57° Northeast 462 532 41,000  Level FlightAware Transoceanic
06:35PM 24.5389 -54.3503 57° Northeast 462 532 41,000  Level FlightAware Transoceanic
06:36PM 24.6090 -54.2318 57° Northeast 462 532 41,000  Level FlightAware Transoceanic
06:37PM 24.6790 -54.1133 57° Northeast 462 532 41,000  Level FlightAware Transoceanic
06:38PM 24.7488 -53.9946 57° Northeast 462 532 41,000  Level FlightAware Transoceanic
06:39PM 24.8186 -53.8757 57° Northeast 462 532 41,000  Level FlightAware Transoceanic
06:40PM 24.8883 -53.7567 57° Northeast 462 532 41,000  Level FlightAware Transoceanic
06:41PM 24.9579 -53.6376 57° Northeast 462 532 41,000  Level FlightAware Transoceanic
06:42PM 25.0274 -53.5184 57° Northeast 462 532 41,000  Level FlightAware Transoceanic
06:43PM 25.0968 -53.3990 57° Northeast 462 532 41,000  Level FlightAware Transoceanic
06:44PM 25.1662 -53.2795 57° Northeast 462 532 41,000  Level FlightAware Transoceanic
06:45PM 25.2354 -53.1599 57° Northeast 462 532 41,000  Level FlightAware Transoceanic
06:46PM 25.3045 -53.0401 57° Northeast 462 532 41,000  Level FlightAware Transoceanic
06:47PM 25.3735 -52.9202 58° Northeast 462 532 41,000  Level FlightAware Transoceanic
06:48PM 25.4425 -52.8001 58° Northeast 462 532 41,000  Level FlightAware Transoceanic
06:49PM 25.5113 -52.6799 58° Northeast 462 532 41,000  Level FlightAware Transoceanic
06:50PM 25.5800 -52.5596 58° Northeast 462 532 41,000  Level FlightAware Transoceanic
06:51PM 25.6486 -52.4391 58° Northeast 462 532 41,000  Level FlightAware Transoceanic
06:52PM 25.7172 -52.3185 58° Northeast 462 532 41,000  Level FlightAware Transoceanic
06:53PM 25.7856 -52.1977 58° Northeast 462 532 41,000  Level FlightAware Transoceanic
06:54PM 25.8540 -52.0768 58° Northeast 462 532 41,000  Level FlightAware Transoceanic
06:55PM 25.9222 -51.9558 58° Northeast 462 532 41,000  Level FlightAware Transoceanic
06:56PM 25.9903 -51.8346 58° Northeast 462 532 41,000  Level FlightAware Transoceanic
06:57PM 26.0584 -51.7133 58° Northeast 462 532 41,000  Level FlightAware Transoceanic
06:58PM 26.1263 -51.5919 58° Northeast 462 532 41,000  Level FlightAware Transoceanic
06:59PM 26.1941 -51.4703 58° Northeast 462 532 41,000  Level FlightAware Transoceanic
07:00PM 26.2619 -51.3485 58° Northeast 462 532 41,000  Level FlightAware Transoceanic
07:01PM 26.3295 -51.2267 58° Northeast 462 532 41,000  Level FlightAware Transoceanic
07:02PM 26.3970 -51.1046 58° Northeast 462 532 41,000  Level FlightAware Transoceanic
07:03PM 26.4644 -50.9825 58° Northeast 462 532 41,000  Level FlightAware Transoceanic
07:04PM 26.5317 -50.8602 58° Northeast 462 532 41,000  Level FlightAware Transoceanic
07:05PM 26.5989 -50.7377 58° Northeast 462 532 41,000  Level FlightAware Transoceanic
07:06PM 26.6661 -50.6151 59° Northeast 462 532 41,000  Level FlightAware Transoceanic
07:07PM 26.7331 -50.4924 59° Northeast 462 532 41,000  Level FlightAware Transoceanic
07:08PM 26.7999 -50.3695 59° Northeast 462 532 41,000  Level FlightAware Transoceanic
07:09PM 26.8667 -50.2465 59° Northeast 462 532 41,000  Level FlightAware Transoceanic
07:10PM 26.9334 -50.1233 59° Northeast 462 532 41,000  Level FlightAware Transoceanic
07:11PM 27.0000 -50.0000 63° Northeast 462 532 41,000  Level FlightAware Transoceanic
07:12PM 27.0588 -49.8700 63° Northeast 462 532 41,000  Level FlightAware Transoceanic
07:13PM 27.1175 -49.7398 63° Northeast 462 532 41,000  Level FlightAware Transoceanic
07:14PM 27.1761 -49.6095 63° Northeast 462 532 41,000  Level FlightAware Transoceanic
07:15PM 27.2345 -49.4791 63° Northeast 462 532 41,000  Level FlightAware Transoceanic
07:16PM 27.2928 -49.3485 63° Northeast 462 532 41,000  Level FlightAware Transoceanic
07:16PM 27.0000 -50.0000 63° Northeast 455 524 41,000  Level New York Oceanic (ODAPS)
07:17PM 27.3510 -49.2178 63° Northeast 462 532 41,000  Level FlightAware Transoceanic
07:18PM 27.4091 -49.0870 63° Northeast 462 532 41,000  Level FlightAware Transoceanic
07:19PM 27.4671 -48.9560 64° Northeast 462 532 41,000  Level FlightAware Transoceanic
07:20PM 27.5249 -48.8249 64° Northeast 462 532 41,000  Level FlightAware Transoceanic
07:21PM 27.5826 -48.6936 64° Northeast 462 532 41,000  Level FlightAware Transoceanic
07:22PM 27.5112 -48.8560 64° Northeast 455 524 41,000  Level FlightAware Transoceanic
07:23PM 27.5674 -48.7282 64° Northeast 455 524 41,000  Level FlightAware Transoceanic
07:24PM 27.6235 -48.6003 64° Northeast 455 524 41,000  Level FlightAware Transoceanic
07:25PM 27.6795 -48.4723 64° Northeast 455 524 41,000  Level FlightAware Transoceanic
07:26PM 27.7354 -48.3441 64° Northeast 455 524 41,000  Level FlightAware Transoceanic
07:27PM 27.7911 -48.2158 64° Northeast 455 524 41,000  Level FlightAware Transoceanic
07:28PM 27.8468 -48.0874 64° Northeast 455 524 41,000  Level FlightAware Transoceanic
07:29PM 27.9023 -47.9588 64° Northeast 455 524 41,000  Level FlightAware Transoceanic
07:30PM 27.9577 -47.8302 64° Northeast 455 524 41,000  Level FlightAware Transoceanic
07:31PM 28.0130 -47.7013 64° Northeast 455 524 41,000  Level FlightAware Transoceanic
07:32PM 28.0681 -47.5724 64° Northeast 455 524 41,000  Level FlightAware Transoceanic
07:33PM 28.1231 -47.4433 64° Northeast 455 524 41,000  Level FlightAware Transoceanic
07:34PM 28.1781 -47.3141 64° Northeast 455 524 41,000  Level FlightAware Transoceanic
07:35PM 28.2329 -47.1847 64° Northeast 455 524 41,000  Level FlightAware Transoceanic
07:36PM 28.2875 -47.0553 64° Northeast 455 524 41,000  Level FlightAware Transoceanic
07:37PM 28.3421 -46.9256 64° Northeast 455 524 41,000  Level FlightAware Transoceanic
07:38PM 28.3965 -46.7959 65° Northeast 455 524 41,000  Level FlightAware Transoceanic
07:39PM 28.4508 -46.6660 65° Northeast 455 524 41,000  Level FlightAware Transoceanic
07:40PM 28.5050 -46.5360 65° Northeast 455 524 41,000  Level FlightAware Transoceanic
07:41PM 28.5590 -46.4059 65° Northeast 455 524 41,000  Level FlightAware Transoceanic
07:42PM 28.6130 -46.2756 65° Northeast 455 524 41,000  Level FlightAware Transoceanic
07:43PM 28.6668 -46.1452 65° Northeast 455 524 41,000  Level FlightAware Transoceanic
07:44PM 28.7204 -46.0146 65° Northeast 455 524 41,000  Level FlightAware Transoceanic
07:45PM 28.7740 -45.8839 65° Northeast 455 524 41,000  Level FlightAware Transoceanic
07:46PM 28.8274 -45.7531 65° Northeast 455 524 41,000  Level FlightAware Transoceanic
07:47PM 28.8807 -45.6222 65° Northeast 455 524 41,000  Level FlightAware Transoceanic
07:48PM 28.9339 -45.4911 65° Northeast 455 524 41,000  Level FlightAware Transoceanic
07:49PM 28.9870 -45.3599 65° Northeast 455 524 41,000  Level FlightAware Transoceanic
07:50PM 29.0399 -45.2285 65° Northeast 455 524 41,000  Level FlightAware Transoceanic
07:51PM 29.0927 -45.0970 65° Northeast 455 524 41,000  Level FlightAware Transoceanic
07:52PM 29.1453 -44.9654 65° Northeast 455 524 41,000  Level FlightAware Transoceanic
07:53PM 29.1979 -44.8336 65° Northeast 455 524 41,000  Level FlightAware Transoceanic
07:54PM 29.2503 -44.7018 66° East 455 524 41,000  Level FlightAware Transoceanic
07:55PM 29.3026 -44.5697 66° East 455 524 41,000  Level FlightAware Transoceanic
07:56PM 29.3547 -44.4376 66° East 455 524 41,000  Level FlightAware Transoceanic
07:57PM 29.4067 -44.3053 66° East 455 524 41,000  Level FlightAware Transoceanic
07:58PM 29.4586 -44.1728 66° East 455 524 41,000  Level FlightAware Transoceanic
07:59PM 29.5104 -44.0403 66° East 455 524 41,000  Level FlightAware Transoceanic
08:00PM 29.5620 -43.9076 66° East 455 524 41,000  Level FlightAware Transoceanic
08:01PM 29.6135 -43.7747 66° East 455 524 41,000  Level FlightAware Transoceanic
08:02PM 29.6649 -43.6418 66° East 455 524 41,000  Level FlightAware Transoceanic
08:03PM 29.7161 -43.5087 66° East 455 524 41,000  Level FlightAware Transoceanic
08:04PM 29.7672 -43.3754 66° East 455 524 41,000  Level FlightAware Transoceanic
08:05PM 29.8181 -43.2420 66° East 455 524 41,000  Level FlightAware Transoceanic
08:06PM 29.8690 -43.1085 66° East 455 524 41,000  Level FlightAware Transoceanic
08:07PM 29.9197 -42.9748 66° East 455 524 41,000  Level FlightAware Transoceanic
08:08PM 29.9702 -42.8411 66° East 455 524 41,000  Level FlightAware Transoceanic
08:09PM 30.0206 -42.7071 67° East 455 524 41,000  Level FlightAware Transoceanic
08:10PM 30.0709 -42.5731 67° East 455 524 41,000  Level FlightAware Transoceanic
08:11PM 30.1211 -42.4389 67° East 455 524 41,000  Level FlightAware Transoceanic
08:12PM 30.1711 -42.3045 67° East 455 524 41,000  Level FlightAware Transoceanic
08:13PM 30.2210 -42.1701 67° East 455 524 41,000  Level FlightAware Transoceanic
08:14PM 30.2707 -42.0355 67° East 455 524 41,000  Level FlightAware Transoceanic
08:15PM 30.3203 -41.9007 67° East 455 524 41,000  Level FlightAware Transoceanic
08:16PM 30.3698 -41.7658 67° East 455 524 41,000  Level FlightAware Transoceanic
08:17PM 30.4191 -41.6308 67° East 455 524 41,000  Level FlightAware Transoceanic
08:18PM 30.4683 -41.4957 67° East 455 524 41,000  Level FlightAware Transoceanic
08:19PM 30.5173 -41.3604 67° East 455 524 41,000  Level FlightAware Transoceanic
08:20PM 30.5662 -41.2250 67° East 455 524 41,000  Level FlightAware Transoceanic
08:21PM 30.6150 -41.0894 67° East 455 524 41,000  Level FlightAware Transoceanic
08:22PM 30.6636 -40.9537 67° East 455 524 41,000  Level FlightAware Transoceanic
08:23PM 30.7121 -40.8179 67° East 455 524 41,000  Level FlightAware Transoceanic
08:24PM 30.7604 -40.6819 68° East 455 524 41,000  Level FlightAware Transoceanic
08:25PM 30.8086 -40.5458 68° East 455 524 41,000  Level FlightAware Transoceanic
08:26PM 30.8567 -40.4095 68° East 455 524 41,000  Level FlightAware Transoceanic
08:27PM 30.9046 -40.2732 68° East 455 524 41,000  Level FlightAware Transoceanic
08:28PM 30.9524 -40.1367 68° East 455 524 41,000  Level FlightAware Transoceanic
08:29PM 31.0000 -40.0000 56° Northeast 455 524 41,000  Level FlightAware Transoceanic
08:30PM 31.0717 -39.8741 56° Northeast 455 524 41,000  Level FlightAware Transoceanic
08:31PM 31.1433 -39.7480 56° Northeast 455 524 41,000  Level FlightAware Transoceanic
08:32PM 31.2147 -39.6217 57° Northeast 455 524 41,000  Level FlightAware Transoceanic
08:33PM 31.2861 -39.4953 57° Northeast 455 524 41,000  Level FlightAware Transoceanic
08:34PM 31.3573 -39.3686 57° Northeast 455 524 41,000 1,980 Level FlightAware Transoceanic
08:34PM 31.0000 -40.0000 56° Northeast 466 536 43,000  Climbing ETMS Enhanced Traffic Management System
08:35PM 31.4284 -39.2417 57° Northeast 455 524 41,000 -1,020 Descending FlightAware Transoceanic
08:36PM 31.4993 -39.1147 57° Northeast 455 524 41,000  Level FlightAware Transoceanic
08:37PM 31.5701 -38.9874 57° Northeast 455 524 41,000  Level FlightAware Transoceanic
08:38PM 31.6409 -38.8600 57° Northeast 455 524 41,000  Level FlightAware Transoceanic
08:39PM 31.7114 -38.7324 57° Northeast 455 524 41,000 960 Level FlightAware Transoceanic
08:40PM 31.8522 -38.4765 57° Northeast 466 536 43,000 960 Climbing FlightAware Transoceanic
08:41PM 31.9224 -38.3483 57° Northeast 466 536 43,000  Level FlightAware Transoceanic
08:42PM 31.9925 -38.2199 57° Northeast 466 536 43,000  Level FlightAware Transoceanic
08:43PM 32.0624 -38.0913 57° Northeast 466 536 43,000  Level FlightAware Transoceanic
08:44PM 32.1322 -37.9625 57° Northeast 466 536 43,000  Level FlightAware Transoceanic
08:45PM 32.2019 -37.8335 57° Northeast 466 536 43,000  Level FlightAware Transoceanic
08:46PM 32.2714 -37.7043 58° Northeast 466 536 43,000  Level FlightAware Transoceanic
08:47PM 32.3408 -37.5749 58° Northeast 466 536 43,000  Level FlightAware Transoceanic
08:48PM 32.4101 -37.4453 58° Northeast 466 536 43,000  Level FlightAware Transoceanic
08:49PM 32.4793 -37.3155 58° Northeast 466 536 43,000  Level FlightAware Transoceanic
08:50PM 32.5483 -37.1855 58° Northeast 466 536 43,000  Level FlightAware Transoceanic
08:51PM 32.6172 -37.0554 58° Northeast 466 536 43,000  Level FlightAware Transoceanic
08:52PM 32.6859 -36.9250 58° Northeast 466 536 43,000  Level FlightAware Transoceanic
08:53PM 32.7545 -36.7944 58° Northeast 466 536 43,000  Level FlightAware Transoceanic
08:54PM 32.8230 -36.6636 58° Northeast 466 536 43,000  Level FlightAware Transoceanic
08:55PM 32.8913 -36.5326 58° Northeast 466 536 43,000  Level FlightAware Transoceanic
08:56PM 32.9595 -36.4014 58° Northeast 466 536 43,000  Level FlightAware Transoceanic
08:57PM 33.0276 -36.2700 58° Northeast 466 536 43,000  Level FlightAware Transoceanic
08:58PM 33.0955 -36.1384 58° Northeast 466 536 43,000  Level FlightAware Transoceanic
08:59PM 33.1633 -36.0066 58° Northeast 466 536 43,000  Level FlightAware Transoceanic
09:00PM 33.2310 -35.8746 59° Northeast 466 536 43,000  Level FlightAware Transoceanic
09:01PM 33.2985 -35.7424 59° Northeast 466 536 43,000  Level FlightAware Transoceanic
09:02PM 33.3658 -35.6099 59° Northeast 466 536 43,000  Level FlightAware Transoceanic
09:03PM 33.4331 -35.4773 59° Northeast 466 536 43,000  Level FlightAware Transoceanic
09:04PM 33.5002 -35.3445 59° Northeast 466 536 43,000  Level FlightAware Transoceanic
09:05PM 33.5671 -35.2114 59° Northeast 466 536 43,000  Level FlightAware Transoceanic
09:06PM 33.6339 -35.0782 59° Northeast 466 536 43,000  Level FlightAware Transoceanic
09:07PM 33.7006 -34.9448 59° Northeast 466 536 43,000  Level FlightAware Transoceanic
09:08PM 33.7671 -34.8111 59° Northeast 466 536 43,000  Level FlightAware Transoceanic
09:09PM 33.8335 -34.6772 59° Northeast 466 536 43,000  Level FlightAware Transoceanic
09:10PM 33.8997 -34.5432 59° Northeast 466 536 43,000  Level FlightAware Transoceanic
09:11PM 33.9658 -34.4089 59° Northeast 466 536 43,000  Level FlightAware Transoceanic
09:12PM 34.0317 -34.2744 59° Northeast 466 536 43,000  Level FlightAware Transoceanic
09:13PM 34.0975 -34.1397 60° Northeast 466 536 43,000  Level FlightAware Transoceanic
09:14PM 34.1631 -34.0048 60° Northeast 466 536 43,000  Level FlightAware Transoceanic
09:15PM 34.2286 -33.8697 60° Northeast 466 536 43,000  Level FlightAware Transoceanic
09:16PM 34.2940 -33.7344 60° Northeast 466 536 43,000  Level FlightAware Transoceanic
09:17PM 34.3592 -33.5989 60° Northeast 466 536 43,000  Level FlightAware Transoceanic
09:18PM 34.4242 -33.4631 60° Northeast 466 536 43,000  Level FlightAware Transoceanic
09:19PM 34.4891 -33.3271 60° Northeast 466 536 43,000  Level FlightAware Transoceanic
09:20PM 34.5539 -33.1910 60° Northeast 466 536 43,000  Level FlightAware Transoceanic
09:21PM 34.6185 -33.0546 60° Northeast 466 536 43,000  Level FlightAware Transoceanic
09:22PM 34.6829 -32.9180 60° Northeast 466 536 43,000  Level FlightAware Transoceanic
09:23PM 34.7472 -32.7812 60° Northeast 466 536 43,000  Level FlightAware Transoceanic
09:24PM 34.8113 -32.6442 60° Northeast 466 536 43,000  Level FlightAware Transoceanic
09:25PM 34.8753 -32.5070 60° Northeast 466 536 43,000  Level FlightAware Transoceanic
09:26PM 34.9391 -32.3695 61° Northeast 466 536 43,000  Level FlightAware Transoceanic
09:27PM 35.0028 -32.2318 61° Northeast 466 536 43,000  Level FlightAware Transoceanic
09:28PM 35.0663 -32.0940 61° Northeast 466 536 43,000  Level FlightAware Transoceanic
09:29PM 35.1297 -31.9559 61° Northeast 466 536 43,000  Level FlightAware Transoceanic
09:30PM 35.1929 -31.8176 61° Northeast 466 536 43,000  Level FlightAware Transoceanic
09:31PM 35.2559 -31.6791 61° Northeast 466 536 43,000  Level FlightAware Transoceanic
09:32PM 35.3188 -31.5403 61° Northeast 466 536 43,000  Level FlightAware Transoceanic
09:33PM 35.3816 -31.4014 61° Northeast 466 536 43,000  Level FlightAware Transoceanic
09:34PM 35.4441 -31.2622 61° Northeast 466 536 43,000  Level FlightAware Transoceanic
09:35PM 35.5065 -31.1229 61° Northeast 466 536 43,000  Level FlightAware Transoceanic
09:36PM 35.5688 -30.9833 61° Northeast 466 536 43,000  Level FlightAware Transoceanic
09:37PM 35.6309 -30.8435 61° Northeast 466 536 43,000  Level FlightAware Transoceanic
09:38PM 35.6928 -30.7034 61° Northeast 466 536 43,000  Level FlightAware Transoceanic
09:39PM 35.7546 -30.5632 62° Northeast 466 536 43,000  Level FlightAware Transoceanic
09:40PM 35.8162 -30.4227 62° Northeast 466 536 43,000  Level FlightAware Transoceanic
09:41PM 35.8776 -30.2820 62° Northeast 466 536 43,000  Level FlightAware Transoceanic
09:42PM 35.9389 -30.1411 62° Northeast 466 536 43,000  Level FlightAware Transoceanic
09:43PM 36.0000 -30.0000 270° West 466 536 43,000  Level FlightAware Transoceanic
09:44PM 36.1225 -30.0000 North  Level FlightAware Approximate
09:45PM 36.1516 -29.8526 75° East  Level Estimated
09:46PM 36.1694 -29.7025 82° East  Level FlightAware Approximate
09:47PM 36.1871 -29.5524 82° East  Level FlightAware Approximate
09:48PM 36.2046 -29.4021 82° East  Level FlightAware Approximate
09:49PM 36.2219 -29.2518 82° East  Level FlightAware Approximate
09:50PM 36.2390 -29.1014 82° East  Level FlightAware Approximate
09:51PM 36.2559 -28.9510 82° East  Level FlightAware Approximate
09:52PM 36.2726 -28.8005 82° East  Level FlightAware Approximate
09:53PM 36.2891 -28.6499 82° East  Level FlightAware Approximate
09:54PM 36.3019 -28.5387 78° East  Level FlightAware Approximate
09:55PM 36.3302 -28.3908 74° East  Level FlightAware Approximate
09:56PM 36.3634 -28.2444 74° East  Level FlightAware Approximate
09:57PM 36.3965 -28.0979 74° East  Level FlightAware Approximate
09:58PM 36.4293 -27.9513 74° East  Level FlightAware Approximate
09:59PM 36.4561 -27.8027 78° East  Level FlightAware Approximate
10:00PM 36.4818 -27.6538 78° East  Level FlightAware Approximate
10:01PM 36.5073 -27.5047 78° East  Level FlightAware Approximate
10:02PM 36.5359 -27.3566 73° East  Level FlightAware Approximate
10:03PM 36.5723 -27.2110 73° East  Level FlightAware Approximate
10:04PM 36.6000 -27.0636 90° East  Level FlightAware Approximate
10:05PM 36.6228 -26.9144 77° East  Level FlightAware Approximate
10:06PM 36.6511 -26.7658 77° East  Level FlightAware Approximate
10:07PM 36.6804 -26.6175 75° East  Level FlightAware Approximate
10:08PM 36.7110 -26.4696 75° East  Level FlightAware Approximate
10:09PM 36.7415 -26.3216 76° East  Level FlightAware Approximate
10:10PM 36.7718 -26.1734 76° East  Level FlightAware Approximate
10:11PM 36.7988 -26.0243 78° East  Level FlightAware Approximate
10:12PM 36.8246 -25.8747 77° East  Level FlightAware Approximate
10:13PM 36.8525 -25.7257 77° East  Level FlightAware Approximate
10:14PM 36.8790 -25.5762 78° East  Level FlightAware Approximate
10:15PM 36.9103 -25.4294 58° Northeast  Level FlightAware Approximate
10:16PM 36.9451 -25.2825 78° East  Level Estimated
10:17PM 36.9667 -25.1667 321° Northwest  Level FlightAware Approximate
10:18PM 36.9714 -25.1706 321° Northwest  Level Estimated
10:19PM 36.9667 -25.1667 321° Northwest  Level FlightAware Approximate
10:20PM 36.9714 -25.1706 321° Northwest  Level Estimated
10:21PM 36.9667 -25.1667 321° Northwest  Level FlightAware Approximate
10:22PM 36.9714 -25.1706 321° Northwest  Level Estimated
10:23PM 36.9667 -25.1667 321° Northwest  Level FlightAware Approximate
10:24PM 36.9714 -25.1706 321° Northwest  Level Estimated
10:25PM 36.9667 -25.1667 321° Northwest  Level FlightAware Approximate
10:26PM 36.9714 -25.1706 321° Northwest  Level Estimated
10:27PM 36.9667 -25.1667 321° Northwest  Level FlightAware Approximate
10:28PM 36.9714 -25.1706 321° Northwest  Level Estimated
10:29PM 36.9667 -25.1667 321° Northwest  Level FlightAware Approximate
10:30PM 36.9714 -25.1706 321° Northwest  Level Estimated
10:31PM 36.9667 -25.1667 321° Northwest  Level FlightAware Approximate
10:32PM 36.9714 -25.1706 321° Northwest  Level Estimated
10:33PM 36.9667 -25.1667 321° Northwest  Level FlightAware Approximate
10:34PM 36.9714 -25.1706 321° Northwest  Level Estimated
10:35PM 36.9667 -25.1667 321° Northwest  Level FlightAware Approximate
10:36PM 36.9714 -25.1706 321° Northwest  Level Estimated
10:37PM 36.9667 -25.1667 321° Northwest  Level FlightAware Approximate
10:38PM 36.9714 -25.1706 321° Northwest  Level Estimated